Time;durP1;ratioP1;P1;durP2;ratioP2;P2;SDS_P1;SDS_P2;PMS_P1;PMS_P2;Temp;Humidity;BMP_temperature;BMP_pressure;BME280_temperature;BME280_humidity;BME280_pressure;Samples;Min_cycle;Max_cycle;Signal;HPM_P1;HPM_P2
2021/12/20 00:00:10;;;;;;;9.80;6.43;;;;;;;;;;4992644;28;19996;-70
2021/12/20 00:02:37;;;;;;;11.93;7.22;;;;;;;;;;4993075;28;20054;-70
2021/12/20 00:05:05;;;;;;;9.88;6.90;;;;;;;;;;4992570;28;20090;-70
2021/12/20 00:07:32;;;;;;;11.60;7.35;;;;;;;;;;4992414;28;20131;-70
2021/12/20 00:09:58;;;;;;;11.52;7.85;;;;;;;;;;5007548;28;20108;-70
2021/12/20 00:12:25;;;;;;;12.23;7.82;;;;;;;;;;4992632;28;20112;-71
2021/12/20 00:14:55;;;;;;;11.50;7.10;;;;;;;;;;4992489;28;20093;-70
2021/12/20 00:17:21;;;;;;;11.18;7.13;;;;;;;;;;4992379;28;20050;-71
2021/12/20 00:19:48;;;;;;;11.35;7.43;;;;;;;;;;5007691;28;20058;-71
2021/12/20 00:22:14;;;;;;;13.02;8.20;;;;;;;;;;4992263;28;20058;-70
2021/12/20 00:24:41;;;;;;;11.02;7.53;;;;;;;;;;5007817;28;20410;-70
2021/12/20 00:27:09;;;;;;;11.73;8.15;;;;;;;;;;4992425;28;20503;-70
2021/12/20 00:29:35;;;;;;;12.70;7.60;;;;;;;;;;4992451;28;20108;-70
2021/12/20 00:32:02;;;;;;;11.35;7.72;;;;;;;;;;4992529;28;20050;-70
2021/12/20 00:34:29;;;;;;;11.48;7.70;;;;;;;;;;4991040;28;20553;-70
2021/12/20 00:37:04;;;;;;;11.95;7.30;;;;;;;;;;4992518;28;20054;-70
2021/12/20 00:42:15;;;;;;;11.82;8.48;;;;;;;;;;4992443;28;20446;-70
2021/12/20 00:44:42;;;;;;;11.55;7.90;;;;;;;;;;4992294;28;20576;-70
2021/12/20 00:47:08;;;;;;;12.23;8.18;;;;;;;;;;4992385;28;20116;-70
2021/12/20 00:49:35;;;;;;;12.60;8.50;;;;;;;;;;4992395;28;20054;-70
2021/12/20 00:52:01;;;;;;;11.30;8.07;;;;;;;;;;4992417;28;20047;-70
2021/12/20 00:54:28;;;;;;;11.38;7.93;;;;;;;;;;4992093;28;20101;-70
2021/12/20 00:56:54;;;;;;;14.18;8.93;;;;;;;;;;5007083;28;20054;-70
2021/12/20 00:59:21;;;;;;;11.75;8.18;;;;;;;;;;4992133;28;20454;-70
2021/12/20 01:01:47;;;;;;;12.18;7.93;;;;;;;;;;4992014;28;20461;-70
2021/12/20 01:04:14;;;;;;;13.30;8.27;;;;;;;;;;4992350;28;20105;-71
2021/12/20 01:06:40;;;;;;;12.32;8.32;;;;;;;;;;4991980;28;20104;-70
2021/12/20 01:09:07;;;;;;;12.25;8.00;;;;;;;;;;4992058;28;20054;-71
2021/12/20 01:11:38;;;;;;;13.23;9.03;;;;;;;;;;4992049;28;20100;-70
2021/12/20 01:14:05;;;;;;;13.23;8.20;;;;;;;;;;4991947;28;20079;-70
2021/12/20 01:16:33;;;;;;;13.23;8.20;;;;;;;;;;4991948;28;20050;-70
2021/12/20 01:18:59;;;;;;;11.98;8.25;;;;;;;;;;4992115;28;20046;-70
2021/12/20 01:21:26;;;;;;;13.52;8.85;;;;;;;;;;4991907;28;20057;-71
2021/12/20 01:23:53;;;;;;;13.30;8.23;;;;;;;;;;4992906;28;20573;-71
2021/12/20 01:26:20;;;;;;;12.80;7.85;;;;;;;;;;4994768;28;20046;-70
2021/12/20 01:28:46;;;;;;;11.15;7.80;;;;;;;;;;4995637;28;20046;-71
2021/12/20 01:31:13;;;;;;;11.63;8.18;;;;;;;;;;4995467;28;20403;-71
2021/12/20 01:33:39;;;;;;;11.48;7.80;;;;;;;;;;4995412;28;20177;-71
2021/12/20 01:36:06;;;;;;;11.93;8.27;;;;;;;;;;4995508;28;20096;-70
2021/12/20 01:38:32;;;;;;;14.07;9.02;;;;;;;;;;4995544;28;20047;-70
2021/12/20 01:40:58;;;;;;;13.27;8.32;;;;;;;;;;4995628;28;20046;-70
2021/12/20 01:43:25;;;;;;;12.65;8.02;;;;;;;;;;4995383;28;20100;-70
2021/12/20 01:45:51;;;;;;;13.38;8.57;;;;;;;;;;4995367;28;20054;-70
2021/12/20 01:48:20;;;;;;;13.43;8.70;;;;;;;;;;4995532;28;20453;-70
2021/12/20 01:53:23;;;;;;;13.70;8.02;;;;;;;;;;4995292;28;20100;-70
2021/12/20 01:55:51;;;;;;;15.10;8.48;;;;;;;;;;4995418;28;20104;-71
2021/12/20 01:58:18;;;;;;;13.65;8.88;;;;;;;;;;5009914;28;20042;-71
2021/12/20 02:01:18;;;;;;;10.48;6.88;;;;;;;;;;4995194;28;20101;-71
2021/12/20 02:03:49;;;;;;;11.95;7.10;;;;;;;;;;4995049;28;20054;-71
2021/12/20 02:06:26;;;;;;;11.88;7.53;;;;;;;;;;4994824;28;20062;-71
2021/12/20 02:08:54;;;;;;;11.38;7.38;;;;;;;;;;4995095;28;20050;-71
2021/12/20 02:11:20;;;;;;;11.43;7.95;;;;;;;;;;4995151;28;20449;-71
2021/12/20 02:13:47;;;;;;;9.40;6.78;;;;;;;;;;4994752;28;20050;-70
2021/12/20 02:16:13;;;;;;;8.52;6.13;;;;;;;;;;4994735;28;20046;-71
2021/12/20 02:18:40;;;;;;;9.95;6.25;;;;;;;;;;4994783;28;20470;-70
2021/12/20 02:21:06;;;;;;;9.60;6.07;;;;;;;;;;4994781;28;20050;-70
2021/12/20 02:23:33;;;;;;;10.57;6.20;;;;;;;;;;4994918;28;20054;-70
2021/12/20 02:26:00;;;;;;;8.15;5.40;;;;;;;;;;4994482;28;20129;-70
2021/12/20 02:28:29;;;;;;;7.55;4.93;;;;;;;;;;4994783;28;20049;-70
2021/12/20 02:38:51;;;;;;;8.43;5.60;;;;;;;;;;4994690;28;20050;-70
2021/12/20 02:41:20;;;;;;;8.55;5.25;;;;;;;;;;4994539;28;20446;-70
2021/12/20 02:43:54;;;;;;;8.95;5.50;;;;;;;;;;4994240;28;20124;-70
2021/12/20 02:46:45;;;;;;;8.98;6.03;;;;;;;;;;4994286;28;20053;-70
2021/12/20 02:49:13;;;;;;;10.55;6.65;;;;;;;;;;4994190;28;20487;-70
2021/12/20 02:51:41;;;;;;;9.40;6.05;;;;;;;;;;4994299;28;20054;-70
2021/12/20 02:54:08;;;;;;;10.07;6.65;;;;;;;;;;4994246;28;20077;-71
2021/12/20 02:56:35;;;;;;;8.83;5.77;;;;;;;;;;4993861;28;20112;-70
2021/12/20 02:59:02;;;;;;;7.25;4.90;;;;;;;;;;4994049;28;20288;-70
2021/12/20 03:01:29;;;;;;;7.00;5.15;;;;;;;;;;4993870;28;20054;-70
2021/12/20 03:03:56;;;;;;;6.15;4.15;;;;;;;;;;4993868;28;20093;-70
2021/12/20 03:06:39;;;;;;;7.17;4.10;;;;;;;;;;4993636;28;20137;-70
2021/12/20 03:09:07;;;;;;;6.20;3.80;;;;;;;;;;4993960;28;20450;-70
2021/12/20 03:11:35;;;;;;;6.00;3.88;;;;;;;;;;4994001;28;20462;-71
2021/12/20 03:14:19;;;;;;;4.65;3.15;;;;;;;;;;4993655;28;20050;-70
2021/12/20 03:16:46;;;;;;;4.88;3.60;;;;;;;;;;4993905;28;20069;-70
2021/12/20 03:19:12;;;;;;;4.35;2.90;;;;;;;;;;4993830;28;20074;-70
2021/12/20 03:21:39;;;;;;;5.00;3.50;;;;;;;;;;4993446;28;20046;-70
2021/12/20 03:24:05;;;;;;;5.45;3.60;;;;;;;;;;4993586;28;20461;-70
2021/12/20 03:26:32;;;;;;;4.38;2.85;;;;;;;;;;4993600;28;20093;-70
2021/12/20 03:28:59;;;;;;;4.82;3.25;;;;;;;;;;4993474;28;20465;-70
2021/12/20 03:31:26;;;;;;;4.43;3.40;;;;;;;;;;4993364;28;20088;-71
2021/12/20 03:33:53;;;;;;;3.53;2.90;;;;;;;;;;4993473;28;20105;-70
2021/12/20 03:36:19;;;;;;;4.20;3.08;;;;;;;;;;4993187;28;20046;-70
2021/12/20 03:38:46;;;;;;;3.67;2.95;;;;;;;;;;4993388;28;20050;-71
2021/12/20 03:41:12;;;;;;;3.88;3.03;;;;;;;;;;4993238;28;20170;-70
2021/12/20 03:43:39;;;;;;;3.58;2.88;;;;;;;;;;4993092;28;20050;-70
2021/12/20 03:46:06;;;;;;;3.35;2.50;;;;;;;;;;4992713;28;20100;-70
2021/12/20 03:48:33;;;;;;;3.47;2.77;;;;;;;;;;4986952;28;20054;-70
2021/12/20 03:51:02;;;;;;;3.88;3.08;;;;;;;;;;4993206;28;20055;-70
2021/12/20 03:53:30;;;;;;;3.92;3.08;;;;;;;;;;4992785;28;20046;-70
2021/12/20 03:55:56;;;;;;;5.20;3.67;;;;;;;;;;4993077;28;20124;-70
2021/12/20 03:58:26;;;;;;;5.70;3.42;;;;;;;;;;4993278;28;20287;-70
2021/12/20 04:00:57;;;;;;;5.10;3.53;;;;;;;;;;4992805;28;20491;-70
2021/12/20 04:03:25;;;;;;;6.43;3.60;;;;;;;;;;4993075;28;20145;-70
2021/12/20 04:05:52;;;;;;;4.80;3.30;;;;;;;;;;4992733;28;20137;-70
2021/12/20 04:08:18;;;;;;;5.30;3.30;;;;;;;;;;4992753;28;20466;-70
2021/12/20 04:10:45;;;;;;;5.18;3.88;;;;;;;;;;4992680;28;20491;-70
2021/12/20 04:13:11;;;;;;;4.95;3.42;;;;;;;;;;5007552;28;20047;-70
2021/12/20 04:15:38;;;;;;;5.00;3.33;;;;;;;;;;4992588;28;20151;-70
2021/12/20 04:18:05;;;;;;;4.82;3.40;;;;;;;;;;4992814;28;20050;-70
2021/12/20 04:20:31;;;;;;;4.35;3.38;;;;;;;;;;4992470;28;20808;-70
2021/12/20 04:22:58;;;;;;;5.07;3.58;;;;;;;;;;4993083;28;20165;-70
2021/12/20 04:25:25;;;;;;;4.72;3.78;;;;;;;;;;4991187;28;20054;-70
2021/12/20 04:27:51;;;;;;;6.18;4.20;;;;;;;;;;4992506;28;20116;-70
2021/12/20 04:30:18;;;;;;;5.20;4.10;;;;;;;;;;4991244;28;20058;-70
2021/12/20 04:32:45;;;;;;;5.65;4.25;;;;;;;;;;4992525;28;20163;-70
2021/12/20 04:35:13;;;;;;;6.00;4.55;;;;;;;;;;4992372;28;20042;-70
2021/12/20 04:37:41;;;;;;;4.85;4.07;;;;;;;;;;4992466;28;20396;-70
2021/12/20 04:40:12;;;;;;;5.75;4.28;;;;;;;;;;4992598;28;20101;-70
2021/12/20 04:42:38;;;;;;;5.38;4.05;;;;;;;;;;4992398;28;20053;-70
2021/12/20 04:45:05;;;;;;;6.63;4.90;;;;;;;;;;4992518;28;20054;-70
2021/12/20 04:47:31;;;;;;;6.70;5.22;;;;;;;;;;5007031;28;20097;-70
2021/12/20 04:49:59;;;;;;;6.10;4.70;;;;;;;;;;4992356;28;20126;-70
2021/12/20 04:52:26;;;;;;;5.73;4.13;;;;;;;;;;4992172;28;20473;-70
2021/12/20 04:54:52;;;;;;;6.90;4.85;;;;;;;;;;4992263;28;20046;-70
2021/12/20 04:57:19;;;;;;;5.60;4.40;;;;;;;;;;4992283;28;20046;-70
2021/12/20 04:59:45;;;;;;;5.75;4.47;;;;;;;;;;4994990;28;20104;-70
2021/12/20 05:02:12;;;;;;;6.10;4.28;;;;;;;;;;4996071;28;20054;-70
2021/12/20 05:04:38;;;;;;;5.05;3.90;;;;;;;;;;4996405;28;20093;-70
2021/12/20 05:07:05;;;;;;;4.95;3.80;;;;;;;;;;4994762;28;20062;-70
2021/12/20 05:09:37;;;;;;;7.15;4.03;;;;;;;;;;5010922;28;20104;-70
2021/12/20 05:12:11;;;;;;;5.78;3.85;;;;;;;;;;4995911;28;20096;-70
2021/12/20 05:14:41;;;;;;;5.20;3.80;;;;;;;;;;4996333;28;20058;-70
2021/12/20 05:17:08;;;;;;;5.90;3.90;;;;;;;;;;4996143;28;20039;-70
2021/12/20 05:19:35;;;;;;;5.03;3.60;;;;;;;;;;4994576;28;20070;-70
2021/12/20 05:22:02;;;;;;;4.28;3.15;;;;;;;;;;4995934;28;20042;-70
2021/12/20 05:24:29;;;;;;;3.25;2.90;;;;;;;;;;4995650;28;20130;-70
2021/12/20 05:26:55;;;;;;;3.63;2.90;;;;;;;;;;4995610;28;20180;-70
2021/12/20 05:29:24;;;;;;;3.63;2.67;;;;;;;;;;4996039;28;20109;-70
2021/12/20 05:31:51;;;;;;;3.47;2.55;;;;;;;;;;4995501;28;20097;-70
2021/12/20 05:34:17;;;;;;;4.18;3.10;;;;;;;;;;4995535;28;20046;-70
2021/12/20 05:36:44;;;;;;;3.45;2.65;;;;;;;;;;4995689;28;20121;-70
2021/12/20 05:39:11;;;;;;;3.67;2.50;;;;;;;;;;4995742;28;20038;-70
2021/12/20 05:41:37;;;;;;;2.05;1.80;;;;;;;;;;4995629;28;20050;-70
2021/12/20 05:44:04;;;;;;;1.90;1.55;;;;;;;;;;4995274;28;20062;-69
2021/12/20 05:46:31;;;;;;;2.30;1.70;;;;;;;;;;4994045;28;20054;-70
2021/12/20 05:48:57;;;;;;;3.08;1.90;;;;;;;;;;4995470;28;20152;-70
2021/12/20 05:51:24;;;;;;;2.13;1.50;;;;;;;;;;4995230;28;20058;-70
2021/12/20 05:53:51;;;;;;;2.20;1.80;;;;;;;;;;4995341;28;20376;-70
2021/12/20 05:56:17;;;;;;;3.10;1.95;;;;;;;;;;5010408;28;20470;-70
2021/12/20 05:58:44;;;;;;;3.20;2.03;;;;;;;;;;4995341;28;20101;-70
2021/12/20 06:01:10;;;;;;;3.15;1.90;;;;;;;;;;4995264;28;20082;-70
2021/12/20 06:03:36;;;;;;;3.70;2.40;;;;;;;;;;4993989;28;20058;-70
2021/12/20 06:06:03;;;;;;;3.35;2.55;;;;;;;;;;4994795;28;20137;-70
2021/12/20 06:08:29;;;;;;;3.78;1.95;;;;;;;;;;4995133;28;20100;-70
2021/12/20 06:10:56;;;;;;;3.80;2.20;;;;;;;;;;4994902;28;20449;-70
2021/12/20 06:13:23;;;;;;;3.70;1.75;;;;;;;;;;4994973;28;20112;-70
2021/12/20 06:15:49;;;;;;;3.03;2.13;;;;;;;;;;4995105;28;20457;-70
2021/12/20 06:18:16;;;;;;;2.50;1.90;;;;;;;;;;4994963;28;20108;-70
2021/12/20 06:20:44;;;;;;;4.05;2.15;;;;;;;;;;4994749;28;20050;-71
2021/12/20 06:23:11;;;;;;;3.17;2.40;;;;;;;;;;4994912;28;20054;-70
2021/12/20 06:25:38;;;;;;;4.32;2.60;;;;;;;;;;4994941;28;20450;-71
2021/12/20 06:28:04;;;;;;;4.95;2.60;;;;;;;;;;4994446;28;20510;-70
2021/12/20 06:30:31;;;;;;;3.35;2.33;;;;;;;;;;4994760;28;20054;-71
2021/12/20 06:32:57;;;;;;;3.67;2.42;;;;;;;;;;4994472;28;20502;-71
2021/12/20 06:35:33;;;;;;;4.20;2.17;;;;;;;;;;4994705;28;20050;-71
2021/12/20 06:38:00;;;;;;;4.55;2.40;;;;;;;;;;5009416;28;20050;-71
2021/12/20 06:40:28;;;;;;;5.53;2.80;;;;;;;;;;4994416;28;20050;-71
2021/12/20 06:42:55;;;;;;;2.78;2.08;;;;;;;;;;4994680;28;20058;-71
2021/12/20 06:45:21;;;;;;;3.25;1.88;;;;;;;;;;4994182;28;20050;-71
2021/12/20 06:47:48;;;;;;;3.28;2.05;;;;;;;;;;4994022;28;20561;-71
2021/12/20 06:50:14;;;;;;;3.33;1.85;;;;;;;;;;4995138;28;20054;-70
2021/12/20 06:52:41;;;;;;;1.50;1.40;;;;;;;;;;4993115;28;20101;-70
2021/12/20 06:55:09;;;;;;;2.35;1.40;;;;;;;;;;4994241;28;20104;-71
2021/12/20 06:57:39;;;;;;;2.35;1.60;;;;;;;;;;4993975;28;20121;-70
2021/12/20 07:00:07;;;;;;;2.92;1.40;;;;;;;;;;4993895;28;20065;-71
2021/12/20 07:02:34;;;;;;;1.23;0.90;;;;;;;;;;4994215;28;20130;-71
2021/12/20 07:05:00;;;;;;;2.85;1.20;;;;;;;;;;5008702;28;20342;-71
2021/12/20 07:07:28;;;;;;;3.15;1.40;;;;;;;;;;4993709;28;20403;-70
2021/12/20 07:09:54;;;;;;;1.60;1.50;;;;;;;;;;4993832;28;20053;-70
2021/12/20 07:12:21;;;;;;;1.02;0.93;;;;;;;;;;5008758;28;20112;-71
2021/12/20 07:14:50;;;;;;;3.08;1.20;;;;;;;;;;4993752;28;20105;-71
2021/12/20 07:17:17;;;;;;;1.92;1.50;;;;;;;;;;4990953;28;20038;-71
2021/12/20 07:19:44;;;;;;;1.80;1.30;;;;;;;;;;4993340;28;20101;-71
2021/12/20 07:22:10;;;;;;;1.40;1.20;;;;;;;;;;4992638;28;20284;-71
2021/12/20 07:24:37;;;;;;;2.70;1.50;;;;;;;;;;4993427;28;20054;-71
2021/12/20 07:27:04;;;;;;;4.43;1.63;;;;;;;;;;4992972;28;20074;-70
2021/12/20 07:29:30;;;;;;;1.83;1.40;;;;;;;;;;4993463;28;20470;-70
2021/12/20 07:31:57;;;;;;;1.35;1.25;;;;;;;;;;4993639;28;20097;-73
2021/12/20 07:34:23;;;;;;;2.90;1.40;;;;;;;;;;4993383;28;20050;-72
2021/12/20 07:36:51;;;;;;;3.42;1.35;;;;;;;;;;5008406;28;20046;-73
2021/12/20 07:39:17;;;;;;;2.00;1.20;;;;;;;;;;4993309;28;20453;-72
2021/12/20 07:41:51;;;;;;;2.20;1.42;;;;;;;;;;4993118;28;20053;-71
2021/12/20 07:44:18;;;;;;;1.20;1.10;;;;;;;;;;4993696;28;20519;-71
2021/12/20 07:46:45;;;;;;;2.38;1.38;;;;;;;;;;4993203;28;20105;-72
2021/12/20 07:49:11;;;;;;;1.70;1.58;;;;;;;;;;4993307;28;20050;-72
2021/12/20 07:51:38;;;;;;;3.08;1.50;;;;;;;;;;4993063;28;20467;-72
2021/12/20 07:54:04;;;;;;;4.00;1.55;;;;;;;;;;4993075;28;20046;-71
2021/12/20 07:56:31;;;;;;;3.13;1.58;;;;;;;;;;4992814;28;20042;-72
2021/12/20 07:58:57;;;;;;;4.25;1.70;;;;;;;;;;4992875;28;20552;-71
2021/12/20 08:01:24;;;;;;;1.95;1.42;;;;;;;;;;4990261;28;20054;-70
2021/12/20 08:03:51;;;;;;;2.33;1.50;;;;;;;;;;4993052;28;20046;-70
2021/12/20 08:06:18;;;;;;;4.80;1.90;;;;;;;;;;4991333;28;20081;-70
2021/12/20 08:08:44;;;;;;;1.23;1.13;;;;;;;;;;4989445;28;20096;-70
2021/12/20 08:11:11;;;;;;;2.10;1.25;;;;;;;;;;4972644;28;20097;-72
2021/12/20 08:13:44;;;;;;;2.75;1.40;;;;;;;;;;4972949;28;20051;-70
2021/12/20 08:16:11;;;;;;;1.30;1.15;;;;;;;;;;4975695;28;20054;-70
2021/12/20 08:18:39;;;;;;;6.85;1.50;;;;;;;;;;4980288;28;20550;-70
2021/12/20 08:21:05;;;;;;;1.42;1.00;;;;;;;;;;4972673;28;20081;-71
2021/12/20 08:23:32;;;;;;;1.15;0.85;;;;;;;;;;4972871;28;20055;-70
2021/12/20 08:25:58;;;;;;;0.95;0.90;;;;;;;;;;4980285;28;20128;-70
2021/12/20 08:28:25;;;;;;;0.93;0.70;;;;;;;;;;4992739;28;20124;-70
2021/12/20 08:30:52;;;;;;;0.77;0.77;;;;;;;;;;4977570;28;20458;-70
2021/12/20 08:33:18;;;;;;;9.07;1.30;;;;;;;;;;4972551;28;20490;-70
2021/12/20 08:35:49;;;;;;;3.00;0.85;;;;;;;;;;4971653;28;20411;-70
2021/12/20 08:38:17;;;;;;;2.22;1.00;;;;;;;;;;4977341;28;20442;-68
2021/12/20 08:40:44;;;;;;;1.35;1.05;;;;;;;;;;4972414;28;20499;-68
2021/12/20 08:43:10;;;;;;;0.73;0.73;;;;;;;;;;4972471;28;20550;-68
2021/12/20 08:45:37;;;;;;;1.20;0.80;;;;;;;;;;4972443;28;20462;-69
2021/12/20 08:48:03;;;;;;;1.88;1.10;;;;;;;;;;4971113;28;20051;-70
2021/12/20 08:50:30;;;;;;;2.25;1.00;;;;;;;;;;4971442;28;20057;-69
2021/12/20 08:52:56;;;;;;;1.08;0.80;;;;;;;;;;4972405;28;20435;-69
2021/12/20 08:55:23;;;;;;;1.30;0.88;;;;;;;;;;4986373;28;20442;-69
2021/12/20 08:57:50;;;;;;;1.70;1.00;;;;;;;;;;4992282;28;20124;-69
2021/12/20 09:00:21;;;;;;;0.77;0.75;;;;;;;;;;4992120;28;20491;-70
2021/12/20 09:02:47;;;;;;;1.52;1.00;;;;;;;;;;4992324;28;20050;-68
2021/12/20 09:05:14;;;;;;;1.23;1.13;;;;;;;;;;4992116;28;20042;-68
2021/12/20 09:07:41;;;;;;;2.45;1.13;;;;;;;;;;4992107;28;20518;-68
2021/12/20 09:10:09;;;;;;;1.35;1.00;;;;;;;;;;4992256;28;20101;-68
2021/12/20 09:12:36;;;;;;;3.13;1.40;;;;;;;;;;4992272;28;20113;-68
2021/12/20 09:15:03;;;;;;;2.60;1.00;;;;;;;;;;4990649;28;20046;-67
2021/12/20 09:17:29;;;;;;;1.52;1.10;;;;;;;;;;4972055;28;20054;-67
2021/12/20 09:19:56;;;;;;;1.48;0.93;;;;;;;;;;4979854;28;20050;-67
2021/12/20 09:22:28;;;;;;;1.02;0.73;;;;;;;;;;4991950;28;20047;-67
2021/12/20 09:24:55;;;;;;;1.33;0.63;;;;;;;;;;4991942;28;20042;-67
2021/12/20 09:27:21;;;;;;;0.40;0.40;;;;;;;;;;4992195;28;20055;-68
2021/12/20 09:29:48;;;;;;;0.55;0.55;;;;;;;;;;4992105;28;20046;-67
2021/12/20 09:32:14;;;;;;;0.43;0.40;;;;;;;;;;4985760;28;20046;-69
2021/12/20 09:34:41;;;;;;;1.25;0.60;;;;;;;;;;4972371;28;20422;-69
2021/12/20 09:37:08;;;;;;;1.58;0.55;;;;;;;;;;4987920;28;20046;-70
2021/12/20 09:39:38;;;;;;;0.85;0.55;;;;;;;;;;4992063;28;20053;-67
2021/12/20 09:42:05;;;;;;;3.05;0.88;;;;;;;;;;4991757;28;20101;-68
2021/12/20 09:44:32;;;;;;;0.70;0.50;;;;;;;;;;4992478;28;20054;-68
2021/12/20 09:47:00;;;;;;;0.55;0.50;;;;;;;;;;4995654;28;20054;-68
2021/12/20 09:49:28;;;;;;;3.25;0.70;;;;;;;;;;4995489;28;20050;-69
2021/12/20 09:51:57;;;;;;;;;;;;;;;;;;4995952;28;20061;-69
2021/12/20 09:54:24;;;;;;;0.77;0.50;;;;;;;;;;4995075;28;19921;-69
2021/12/20 09:56:54;;;;;;;1.40;0.88;;;;;;;;;;4995106;28;20089;-68
2021/12/20 09:59:22;;;;;;;1.00;0.80;;;;;;;;;;5010140;28;20042;-68
2021/12/20 10:01:50;;;;;;;1.50;0.88;;;;;;;;;;4994403;28;20380;-69
2021/12/20 10:04:18;;;;;;;1.70;0.90;;;;;;;;;;4993671;28;20454;-69
2021/12/20 10:06:44;;;;;;;0.70;0.70;;;;;;;;;;4994928;28;20058;-69
2021/12/20 10:09:15;;;;;;;;;;;;;;;;;;4995448;28;20062;-69
2021/12/20 10:11:43;;;;;;;1.15;0.80;;;;;;;;;;4995206;28;20690;-69
2021/12/20 10:14:11;;;;;;;1.30;0.88;;;;;;;;;;4995211;28;20052;-69
2021/12/20 10:16:40;;;;;;;1.40;1.02;;;;;;;;;;4994734;28;20050;-69
2021/12/20 10:19:29;;;;;;;2.05;0.93;;;;;;;;;;4994889;28;20112;-69
2021/12/20 10:21:58;;;;;;;1.63;1.00;;;;;;;;;;4994987;28;20047;-69
2021/12/20 10:24:29;;;;;;;1.20;1.10;;;;;;;;;;4994612;28;20062;-69
2021/12/20 10:26:55;;;;;;;1.70;1.10;;;;;;;;;;4994807;28;20299;-69
2021/12/20 10:29:22;;;;;;;1.33;1.00;;;;;;;;;;4994602;28;20046;-69
2021/12/20 10:31:49;;;;;;;1.45;0.73;;;;;;;;;;5009563;28;20469;-69
2021/12/20 10:34:18;;;;;;;1.60;1.50;;;;;;;;;;4994712;28;20136;-69
2021/12/20 10:36:50;;;;;;;1.27;1.10;;;;;;;;;;4994558;28;20286;-69
2021/12/20 10:39:31;;;;;;;1.35;1.25;;;;;;;;;;4994664;28;20093;-69
2021/12/20 10:42:11;;;;;;;1.45;1.35;;;;;;;;;;4994557;28;20050;-69
2021/12/20 10:44:37;;;;;;;1.25;1.13;;;;;;;;;;4994314;28;20058;-69
2021/12/20 10:47:04;;;;;;;2.10;1.90;;;;;;;;;;4994067;28;20510;-69
2021/12/20 10:49:31;;;;;;;2.87;2.03;;;;;;;;;;4994404;28;20076;-69
2021/12/20 10:51:57;;;;;;;1.63;1.35;;;;;;;;;;4994142;28;20054;-69
2021/12/20 10:54:30;;;;;;;1.42;1.15;;;;;;;;;;4994358;28;20461;-69
2021/12/20 10:57:01;;;;;;;1.58;1.48;;;;;;;;;;4993095;28;20486;-69
2021/12/20 10:59:32;;;;;;;1.33;1.15;;;;;;;;;;4993962;28;20456;-69
2021/12/20 11:04:35;;;;;;;1.02;0.98;;;;;;;;;;4994034;28;20086;-69
2021/12/20 11:09:35;;;;;;;1.85;1.30;;;;;;;;;;4990710;28;20387;-69
2021/12/20 11:12:06;;;;;;;2.28;1.60;;;;;;;;;;4982427;28;20054;-70
2021/12/20 11:14:34;;;;;;;1.90;1.48;;;;;;;;;;4993511;28;20478;-69
2021/12/20 11:17:07;;;;;;;1.95;1.70;;;;;;;;;;4993903;28;20054;-69
2021/12/20 11:19:34;;;;;;;;;;;;;;;;;;4994090;28;20129;-69
2021/12/20 11:22:08;;;;;;;3.38;2.00;;;;;;;;;;4993872;28;19925;-70
2021/12/20 11:24:39;;;;;;;2.67;2.10;;;;;;;;;;4980559;28;20046;-70
2021/12/20 11:27:12;;;;;;;1.60;1.50;;;;;;;;;;4980463;28;20540;-70
2021/12/20 11:29:40;;;;;;;3.30;2.00;;;;;;;;;;4993391;28;20066;-70
2021/12/20 11:32:07;;;;;;;1.70;1.60;;;;;;;;;;4993678;28;20046;-70
2021/12/20 11:34:34;;;;;;;2.10;1.85;;;;;;;;;;4992042;28;20049;-70
2021/12/20 11:37:00;;;;;;;2.17;1.98;;;;;;;;;;4992482;28;20129;-70
2021/12/20 11:39:27;;;;;;;3.70;2.00;;;;;;;;;;4992386;28;20069;-70
2021/12/20 11:41:54;;;;;;;2.95;2.30;;;;;;;;;;4993078;28;20565;-70
2021/12/20 11:44:21;;;;;;;2.50;2.30;;;;;;;;;;4993086;28;20050;-71
2021/12/20 11:47:03;;;;;;;3.80;2.30;;;;;;;;;;4992944;28;20101;-71
2021/12/20 11:49:30;;;;;;;2.88;2.58;;;;;;;;;;4993438;28;20046;-70
2021/12/20 11:51:57;;;;;;;3.45;2.90;;;;;;;;;;4992922;28;20050;-71
2021/12/20 11:54:32;;;;;;;3.40;3.10;;;;;;;;;;4993174;28;20116;-71
2021/12/20 11:56:59;;;;;;;3.78;3.10;;;;;;;;;;4991304;28;20097;-71
2021/12/20 11:59:44;;;;;;;5.05;3.58;;;;;;;;;;4993128;28;20050;-71
2021/12/20 12:02:21;;;;;;;3.88;3.33;;;;;;;;;;4993103;28;20054;-72
2021/12/20 12:04:55;;;;;;;4.82;3.70;;;;;;;;;;4992814;28;20050;-71
2021/12/20 12:07:22;;;;;;;3.83;3.38;;;;;;;;;;4992561;28;20069;-71
2021/12/20 12:09:56;;;;;;;3.72;3.42;;;;;;;;;;4978507;28;20109;-71
2021/12/20 12:12:23;;;;;;;4.97;3.50;;;;;;;;;;4992614;28;20058;-71
2021/12/20 12:15:08;;;;;;;3.53;3.17;;;;;;;;;;4992556;28;20042;-72
2021/12/20 12:17:54;;;;;;;3.78;3.28;;;;;;;;;;4992839;28;20046;-72
2021/12/20 12:20:39;;;;;;;4.18;3.28;;;;;;;;;;4992534;28;20050;-70
2021/12/20 12:23:16;;;;;;;4.20;3.35;;;;;;;;;;4992730;28;20074;-69
2021/12/20 12:25:44;;;;;;;4.32;3.50;;;;;;;;;;4991472;28;20117;-69
2021/12/20 12:28:12;;;;;;;4.82;3.05;;;;;;;;;;4992715;28;20448;-69
2021/12/20 12:30:40;;;;;;;3.85;3.35;;;;;;;;;;4992794;28;20128;-71
2021/12/20 12:33:06;;;;;;;1.95;1.80;;;;;;;;;;4992700;28;20109;-70
2021/12/20 12:35:42;;;;;;;2.20;1.95;;;;;;;;;;4992174;28;20050;-69
2021/12/20 12:38:14;;;;;;;2.33;2.10;;;;;;;;;;4992826;28;20050;-70
2021/12/20 12:40:41;;;;;;;1.65;1.55;;;;;;;;;;4992279;28;20108;-69
2021/12/20 12:43:08;;;;;;;2.53;1.80;;;;;;;;;;4976774;28;20116;-69
2021/12/20 12:45:50;;;;;;;3.55;1.95;;;;;;;;;;4986384;28;20145;-68
2021/12/20 12:48:36;;;;;;;2.72;1.90;;;;;;;;;;4982231;28;20506;-70
2021/12/20 12:51:25;;;;;;;1.77;1.63;;;;;;;;;;4986526;28;20540;-71
2021/12/20 12:53:53;;;;;;;2.22;1.58;;;;;;;;;;4989211;28;20054;-71
2021/12/20 12:56:25;;;;;;;1.90;1.30;;;;;;;;;;4992055;28;20042;-71
2021/12/20 12:59:10;;;;;;;0.82;0.82;;;;;;;;;;4992144;28;20062;-70
2021/12/20 13:01:38;;;;;;;1.27;0.80;;;;;;;;;;4992362;28;20093;-70
2021/12/20 13:04:04;;;;;;;0.80;0.80;;;;;;;;;;4992463;28;20042;-69
2021/12/20 13:06:31;;;;;;;0.87;0.87;;;;;;;;;;4992053;28;20070;-68
2021/12/20 13:09:01;;;;;;;0.65;0.65;;;;;;;;;;4978054;28;20167;-68
2021/12/20 13:11:30;;;;;;;0.80;0.80;;;;;;;;;;4972622;28;20414;-69
2021/12/20 13:14:18;;;;;;;1.17;1.17;;;;;;;;;;4972390;28;20053;-69
2021/12/20 13:16:52;;;;;;;0.88;0.88;;;;;;;;;;4972066;28;20101;-70
2021/12/20 13:19:36;;;;;;;1.70;1.00;;;;;;;;;;4972244;28;20039;-70
2021/12/20 13:22:04;;;;;;;1.40;1.20;;;;;;;;;;4981348;28;20046;-69
2021/12/20 13:24:30;;;;;;;1.20;1.10;;;;;;;;;;4981381;28;20043;-68
2021/12/20 13:27:07;;;;;;;1.33;1.23;;;;;;;;;;4975724;28;20046;-68
2021/12/20 13:29:34;;;;;;;1.30;1.20;;;;;;;;;;4974565;28;20054;-68
2021/12/20 13:32:06;;;;;;;2.60;1.45;;;;;;;;;;4975999;28;20050;-69
2021/12/20 13:34:32;;;;;;;2.17;1.60;;;;;;;;;;4992903;28;20050;-69
2021/12/20 13:37:04;;;;;;;1.63;1.40;;;;;;;;;;4995586;28;20057;-68
2021/12/20 13:39:30;;;;;;;1.80;1.52;;;;;;;;;;4995479;28;20051;-68
2021/12/20 13:42:07;;;;;;;1.63;1.52;;;;;;;;;;4995453;28;20055;-69
2021/12/20 13:44:33;;;;;;;1.67;1.58;;;;;;;;;;4995453;28;20545;-69
2021/12/20 13:47:03;;;;;;;1.38;1.27;;;;;;;;;;4995534;28;20112;-68
2021/12/20 13:49:30;;;;;;;1.23;1.13;;;;;;;;;;4995603;28;20502;-68
2021/12/20 13:51:59;;;;;;;1.33;1.15;;;;;;;;;;4994311;28;20046;-69
2021/12/20 13:54:33;;;;;;;1.60;1.50;;;;;;;;;;4995556;28;20053;-70
2021/12/20 13:57:20;;;;;;;1.88;1.60;;;;;;;;;;4994131;28;20133;-68
2021/12/20 13:59:46;;;;;;;1.65;1.38;;;;;;;;;;4975558;28;20130;-69
2021/12/20 14:02:14;;;;;;;1.88;1.40;;;;;;;;;;4975097;28;20454;-69
2021/12/20 14:04:42;;;;;;;1.63;1.52;;;;;;;;;;4975161;28;20491;-69
2021/12/20 14:07:09;;;;;;;;;;;;;;;;;;4989875;28;20577;-70
2021/12/20 14:09:40;;;;;;;1.88;1.52;;;;;;;;;;4994913;28;19925;-71
2021/12/20 14:12:09;;;;;;;1.67;1.52;;;;;;;;;;4995242;28;20113;-77
2021/12/20 14:14:36;;;;;;;1.55;1.45;;;;;;;;;;4995231;28;20395;-74
2021/12/20 14:17:04;;;;;;;1.75;1.65;;;;;;;;;;4994834;28;20104;-77
2021/12/20 14:19:49;;;;;;;2.35;1.98;;;;;;;;;;4994882;28;20461;-76
2021/12/20 14:22:17;;;;;;;2.08;1.88;;;;;;;;;;4995035;28;20081;-73
2021/12/20 14:24:43;;;;;;;;;;;;;;;;;;4995323;28;20046;-78
2021/12/20 14:27:10;;;;;;;2.00;1.80;;;;;;;;;;4994621;28;20715;-73
2021/12/20 14:29:36;;;;;;;2.65;2.10;;;;;;;;;;4994403;28;20097;-75
2021/12/20 14:32:05;;;;;;;3.70;2.50;;;;;;;;;;4994356;28;20112;-77
2021/12/20 14:34:33;;;;;;;2.13;1.90;;;;;;;;;;4988134;28;20458;-76
2021/12/20 14:37:07;;;;;;;2.95;2.10;;;;;;;;;;4974737;28;20047;-77
2021/12/20 14:39:42;;;;;;;2.53;2.03;;;;;;;;;;4991618;28;20099;-77
2021/12/20 14:42:08;;;;;;;2.15;1.80;;;;;;;;;;4994189;28;20050;-77
2021/12/20 14:44:44;;;;;;;1.70;1.60;;;;;;;;;;4994600;28;20113;-77
2021/12/20 14:47:20;;;;;;;1.63;1.52;;;;;;;;;;4994331;28;20050;-77
2021/12/20 14:49:51;;;;;;;3.03;2.10;;;;;;;;;;4994876;28;20057;-77
2021/12/20 14:52:25;;;;;;;2.53;2.10;;;;;;;;;;4994266;28;20058;-77
2021/12/20 14:54:52;;;;;;;2.58;1.92;;;;;;;;;;4994124;28;20101;-77
2021/12/20 14:57:20;;;;;;;3.67;2.13;;;;;;;;;;4993869;28;20078;-76
2021/12/20 14:59:51;;;;;;;;;;;;;;;;;;4995061;28;20050;-76
2021/12/20 15:02:24;;;;;;;2.33;1.63;;;;;;;;;;4994368;28;19929;-76
2021/12/20 15:04:52;;;;;;;3.00;2.53;;;;;;;;;;4993961;28;20049;-76
2021/12/20 15:07:19;;;;;;;2.72;2.42;;;;;;;;;;4993812;28;20062;-76
2021/12/20 15:09:45;;;;;;;2.50;2.30;;;;;;;;;;4993983;28;20462;-76